Nearby METAR Reports

 

KJOT - Joliet, Illinois, USA
Distance from station: SSW 3mi, 6km
Updated: Thu, 21-Sep-2017 8:35am CDT
Clear
Clear
 Wind from calm
Wind: Calm
Temperature: 77°F , 25°C
Dew Point: 72°F , 22°C
Humidity: 83%
Barometer: 30.02 inHg , 1016.6 hPa
Clouds: Clear
Visibility: 10 miles , 16 km
2017/09/21 13:35 KJOT 211335Z AUTO 00000KT 10SM CLR 25/22 A3002 RMK AO2 T02500223
KLOT - Romeoville/Chi, Illinois, USA
Distance from station: NE 4mi, 6km
Updated: Thu, 21-Sep-2017 8:35am CDT
Clear
Clear
 Wind from calm
Wind: Calm
Temperature: 75°F , 24°C
Dew Point: 70°F , 21°C
Humidity: 83%
Barometer: 30.03 inHg , 1016.9 hPa
Clouds: Clear
Visibility: 7 miles , 11 km
2017/09/21 13:35 KLOT 211335Z AUTO 00000KT 7SM CLR 24/21 A3003 RMK AO2 T02370211
 
KC09 - Morris-Washburn, Illinois, USA
Distance from station: SW 16mi, 26km
Updated: Thu, 21-Sep-2017 8:35am CDT
Clear
Clear
 Wind from E
Wind: E 3 mph , 6 km/h
Temperature: 73°F , 23°C
Dew Point: 70°F , 21°C
Humidity: 89%
Barometer: 30.01 inHg , 1016.3 hPa
Clouds: Clear
Visibility: 10 miles , 16 km
2017/09/21 13:35 KC09 211335Z AUTO 08003KT 10SM CLR 23/21 A3001 RMK AO2 T02330210
KARR - Chicago/Aurora, Illinois, USA
Distance from station: NW 22mi, 35km
Updated: Thu, 21-Sep-2017 8:52am CDT
Clear
Clear
 Wind from SE
Wind: SE 6 mph , 9 km/h
Temperature: 75°F , 24°C
Dew Point: 70°F , 21°C
Humidity: 83%
Barometer: 30.03 inHg , 1016.9 hPa
Clouds: Clear
Visibility: 9 miles , 14 km
2017/09/21 13:52 KARR 211352Z 13005KT 9SM CLR 24/21 A3003 RMK AO2 SLP162 T02440206
 
KDPA - Chicago/Dupage, Illinois, USA
Distance from station: NNW 25mi, 40km
Updated: Thu, 21-Sep-2017 8:52am CDT
Haze, Clear
Haze, Clear
 Wind from SSE
Wind: SSE 7 mph , 11 km/h
Temperature: 77°F , 25°C
Dew Point: 70°F , 21°C
Humidity: 79%
Barometer: 30.01 inHg , 1016.3 hPa
Summary: Haze
Clouds: Clear
Visibility: 6 miles , 10 km
2017/09/21 13:52 KDPA 211352Z 16006KT 6SM HZ CLR 25/21 A3001 RMK AO2 SLP156 T02500211
KMDW - Chicago, Illinois, USA
Distance from station: NE 26mi, 42km
Updated: Thu, 21-Sep-2017 8:53am CDT
Mostly cloudy
Mostly cloudy
 Wind from S
Wind: S 7 mph , 11 km/h
Temperature: 79°F , 26°C
Dew Point: 70°F , 21°C
Humidity: 74%
Barometer: 30.02 inHg , 1016.6 hPa
Clouds: Mostly cloudy
Visibility: 10 miles , 16 km
Cloud details: Few Clouds 20000 ft
Mostly cloudy 25000 ft
2017/09/21 13:53 KMDW 211353Z 19006KT 10SM FEW200 BKN250 26/21 A3002 RMK AO2 SLP154 T02560206
 
KORD - Chicago O'hare, Illinois, USA
Distance from station: NNE 31mi, 50km
Updated: Thu, 21-Sep-2017 8:51am CDT
Mostly cloudy
Mostly cloudy
 Wind from S
Wind: S 5 mph , 7 km/h
Temperature: 79°F , 26°C
Dew Point: 68°F , 20°C
Humidity: 70%
Barometer: 30.01 inHg , 1016.3 hPa
Clouds: Mostly cloudy
Visibility: 10 miles , 16 km
Cloud details: Few Clouds 15000 ft
Few Clouds 23000 ft
Mostly cloudy 30000 ft
2017/09/21 13:51 KORD 211351Z 18004KT 10SM FEW150 FEW230 BKN300 26/20 A3001 RMK AO2 SLP157 T02610200
KIGQ - Chicago/Lansing, Illinois, USA
Distance from station: E 32mi, 52km
Updated: Thu, 21-Sep-2017 8:55am CDT
Clear
Clear
 Wind from calm
Wind: Calm
Temperature: 75°F , 24°C
Dew Point: 72°F , 22°C
Humidity: 89%
Barometer: 30.04 inHg , 1017.3 hPa
Clouds: Clear
Visibility: 10 miles , 16 km
2017/09/21 13:55 KIGQ 211355Z AUTO 00000KT 10SM CLR 24/22 A3004 RMK AO2 T02430218
 
KDKB - De Kalb, Illinois, USA
Distance from station: NW 38mi, 61km
Updated: Thu, 21-Sep-2017 8:35am CDT
Clear
Clear
 Wind from ESE
Wind: ESE 7 mph , 11 km/h
Temperature: 73°F , 23°C
Dew Point: 70°F , 21°C
Humidity: 89%
Barometer: 30.02 inHg , 1016.6 hPa
Clouds: Clear
Visibility: 10 miles , 16 km
2017/09/21 13:35 KDKB 211335Z AUTO 11006KT 10SM CLR 23/21 A3002 RMK AO2 T02320206
KIKK - Kankakee, Illinois, USA
Distance from station: SSE 38mi, 61km
Updated: Thu, 21-Sep-2017 8:35am CDT
Clear
Clear
 Wind from calm
Wind: Calm
Temperature: 77°F , 25°C
Dew Point: 72°F , 22°C
Humidity: 83%
Barometer: 30.04 inHg , 1017.3 hPa
Clouds: Clear
Visibility: 10 miles , 16 km
2017/09/21 13:35 KIKK 211335Z AUTO 00000KT 10SM CLR 25/22 A3004 RMK AO2 T02450215
 
KGYY - Gary Regional, Indiana, USA
Distance from station: E 38mi, 62km
Updated: Thu, 21-Sep-2017 8:45am CDT
Partly cloudy
Partly cloudy
 Wind from SW
Wind: SW 3 mph , 6 km/h
Temperature: 75°F , 24°C
Dew Point: 70°F , 21°C
Humidity: 83%
Barometer: 30.05 inHg , 1017.6 hPa
Clouds: Partly cloudy
Visibility: 10 miles , 16 km
Cloud details: Partly cloudy 25000 ft
2017/09/21 13:45 KGYY 211345Z 22003KT 10SM SCT250 24/21 A3005
KPWK - Palwaukee, Illinois, USA
Distance from station: NNE 40mi, 65km
Updated: Thu, 21-Sep-2017 8:52am CDT
Clear
Clear
 Wind from S
Wind: S 5 mph , 7 km/h
Temperature: 81°F , 27°C
Heat Index: 85°F , 29°C
Dew Point: 72°F , 22°C
Humidity: 74%
Barometer: 30.02 inHg , 1016.6 hPa
Clouds: Clear
Visibility: 10 miles , 16 km
2017/09/21 13:52 KPWK 211352Z 17004KT 10SM CLR 27/22 A3002 RMK AO2 SLP160 T02670217